sensor_id;sensor_type;location;lat;lon;timestamp;temperature;humidity
52899;DHT22;38763;53.096;6.062;2022-10-17T00:00:42;12.20;99.90
52899;DHT22;38763;53.096;6.062;2022-10-17T00:03:08;12.20;99.90
52899;DHT22;38763;53.096;6.062;2022-10-17T00:05:37;12.20;99.90
52899;DHT22;38763;53.096;6.062;2022-10-17T00:08:03;12.20;99.90
52899;DHT22;38763;53.096;6.062;2022-10-17T00:10:28;12.20;99.90
52899;DHT22;38763;53.096;6.062;2022-10-17T00:12:54;12.20;99.90
52899;DHT22;38763;53.096;6.062;2022-10-17T00:15:20;12.20;99.90
52899;DHT22;38763;53.096;6.062;2022-10-17T00:17:46;12.20;99.90
52899;DHT22;38763;53.096;6.062;2022-10-17T00:20:12;12.20;99.90
52899;DHT22;38763;53.096;6.062;2022-10-17T00:22:38;12.20;99.90
52899;DHT22;38763;53.096;6.062;2022-10-17T00:25:04;12.30;99.90
52899;DHT22;38763;53.096;6.062;2022-10-17T00:27:30;12.20;99.90
52899;DHT22;38763;53.096;6.062;2022-10-17T00:29:58;12.20;99.90
52899;DHT22;38763;53.096;6.062;2022-10-17T00:32:24;12.20;99.90
52899;DHT22;38763;53.096;6.062;2022-10-17T00:34:49;12.20;99.90
52899;DHT22;38763;53.096;6.062;2022-10-17T00:37:15;12.20;99.90
52899;DHT22;38763;53.096;6.062;2022-10-17T00:39:40;12.20;99.90
52899;DHT22;38763;53.096;6.062;2022-10-17T00:42:08;12.20;99.90
52899;DHT22;38763;53.096;6.062;2022-10-17T00:47:03;12.20;99.90
52899;DHT22;38763;53.096;6.062;2022-10-17T00:49:32;12.30;99.90
52899;DHT22;38763;53.096;6.062;2022-10-17T00:52:01;12.30;99.90
52899;DHT22;38763;53.096;6.062;2022-10-17T00:54:34;12.30;99.90
52899;DHT22;38763;53.096;6.062;2022-10-17T00:57:00;12.30;99.90
52899;DHT22;38763;53.096;6.062;2022-10-17T00:59:27;12.30;99.90
52899;DHT22;38763;53.096;6.062;2022-10-17T01:01:59;12.20;99.90
52899;DHT22;38763;53.096;6.062;2022-10-17T01:04:26;12.30;99.90
52899;DHT22;38763;53.096;6.062;2022-10-17T01:06:51;12.30;99.90
52899;DHT22;38763;53.096;6.062;2022-10-17T01:09:17;12.30;99.90
52899;DHT22;38763;53.096;6.062;2022-10-17T01:14:37;12.40;99.90
52899;DHT22;38763;53.096;6.062;2022-10-17T01:17:10;12.40;99.90
52899;DHT22;38763;53.096;6.062;2022-10-17T01:31:22;12.50;99.90
52899;DHT22;38763;53.096;6.062;2022-10-17T01:34:07;12.60;99.90
52899;DHT22;38763;53.096;6.062;2022-10-17T01:36:46;12.50;99.90
52899;DHT22;38763;53.096;6.062;2022-10-17T01:39:39;12.60;99.90
52899;DHT22;38763;53.096;6.062;2022-10-17T01:44:45;12.60;99.90
52899;DHT22;38763;53.096;6.062;2022-10-17T01:47:16;12.50;99.90
52899;DHT22;38763;53.096;6.062;2022-10-17T01:49:44;12.50;99.90
52899;DHT22;38763;53.096;6.062;2022-10-17T01:52:15;12.50;99.90
52899;DHT22;38763;53.096;6.062;2022-10-17T01:54:53;12.40;99.90
52899;DHT22;38763;53.096;6.062;2022-10-17T01:57:39;12.40;99.90
52899;DHT22;38763;53.096;6.062;2022-10-17T02:00:10;12.40;99.90
52899;DHT22;38763;53.096;6.062;2022-10-17T02:02:37;12.40;99.90
52899;DHT22;38763;53.096;6.062;2022-10-17T02:05:03;12.40;99.90
52899;DHT22;38763;53.096;6.062;2022-10-17T02:07:29;12.30;99.90
52899;DHT22;38763;53.096;6.062;2022-10-17T02:09:55;12.40;99.90
52899;DHT22;38763;53.096;6.062;2022-10-17T02:15:32;12.30;99.90
52899;DHT22;38763;53.096;6.062;2022-10-17T02:20:55;12.20;99.90
52899;DHT22;38763;53.096;6.062;2022-10-17T02:26:29;12.20;99.90
52899;DHT22;38763;53.096;6.062;2022-10-17T02:29:12;12.30;99.90
52899;DHT22;38763;53.096;6.062;2022-10-17T02:31:48;12.30;99.90
52899;DHT22;38763;53.096;6.062;2022-10-17T02:34:28;12.30;99.90
52899;DHT22;38763;53.096;6.062;2022-10-17T02:36:59;12.20;99.90
52899;DHT22;38763;53.096;6.062;2022-10-17T02:39:27;12.30;99.90
52899;DHT22;38763;53.096;6.062;2022-10-17T02:41:56;12.30;99.90
52899;DHT22;38763;53.096;6.062;2022-10-17T02:44:24;12.30;99.90
52899;DHT22;38763;53.096;6.062;2022-10-17T02:46:54;12.30;99.90
52899;DHT22;38763;53.096;6.062;2022-10-17T02:49:28;12.40;99.90
52899;DHT22;38763;53.096;6.062;2022-10-17T02:52:09;12.30;99.90
52899;DHT22;38763;53.096;6.062;2022-10-17T02:57:35;12.40;99.90
52899;DHT22;38763;53.096;6.062;2022-10-17T03:00:07;12.30;99.90
52899;DHT22;38763;53.096;6.062;2022-10-17T03:02:48;12.40;99.90
52899;DHT22;38763;53.096;6.062;2022-10-17T03:05:25;12.30;99.90
52899;DHT22;38763;53.096;6.062;2022-10-17T03:07:52;12.40;99.90
52899;DHT22;38763;53.096;6.062;2022-10-17T03:10:18;12.30;99.90
52899;DHT22;38763;53.096;6.062;2022-10-17T03:12:44;12.30;99.90
52899;DHT22;38763;53.096;6.062;2022-10-17T03:15:10;12.40;99.90
52899;DHT22;38763;53.096;6.062;2022-10-17T03:17:36;12.30;99.90
52899;DHT22;38763;53.096;6.062;2022-10-17T03:20:02;12.50;99.90
52899;DHT22;38763;53.096;6.062;2022-10-17T03:22:28;12.40;99.90
52899;DHT22;38763;53.096;6.062;2022-10-17T03:24:53;12.40;99.90
52899;DHT22;38763;53.096;6.062;2022-10-17T03:27:19;12.30;99.90
52899;DHT22;38763;53.096;6.062;2022-10-17T03:29:45;12.40;99.90
52899;DHT22;38763;53.096;6.062;2022-10-17T03:32:10;12.30;99.90
52899;DHT22;38763;53.096;6.062;2022-10-17T03:34:36;12.30;99.90
52899;DHT22;38763;53.096;6.062;2022-10-17T03:37:01;12.30;99.90
52899;DHT22;38763;53.096;6.062;2022-10-17T03:39:27;12.30;99.90
52899;DHT22;38763;53.096;6.062;2022-10-17T03:41:53;12.30;99.90
52899;DHT22;38763;53.096;6.062;2022-10-17T03:44:18;12.40;99.90
52899;DHT22;38763;53.096;6.062;2022-10-17T03:46:44;12.40;99.90
52899;DHT22;38763;53.096;6.062;2022-10-17T03:49:09;12.40;99.90
52899;DHT22;38763;53.096;6.062;2022-10-17T03:51:35;12.40;99.90
52899;DHT22;38763;53.096;6.062;2022-10-17T03:54:01;12.50;99.90
52899;DHT22;38763;53.096;6.062;2022-10-17T03:56:27;12.50;99.90
52899;DHT22;38763;53.096;6.062;2022-10-17T03:58:56;12.50;99.90
52899;DHT22;38763;53.096;6.062;2022-10-17T04:01:22;12.40;99.90
52899;DHT22;38763;53.096;6.062;2022-10-17T04:03:53;12.60;99.90
52899;DHT22;38763;53.096;6.062;2022-10-17T04:06:20;12.70;99.90
52899;DHT22;38763;53.096;6.062;2022-10-17T04:08:46;12.50;99.90
52899;DHT22;38763;53.096;6.062;2022-10-17T04:11:14;12.60;99.90
52899;DHT22;38763;53.096;6.062;2022-10-17T04:13:40;12.50;99.90
52899;DHT22;38763;53.096;6.062;2022-10-17T04:16:09;12.70;99.90
52899;DHT22;38763;53.096;6.062;2022-10-17T04:18:35;12.80;99.90
52899;DHT22;38763;53.096;6.062;2022-10-17T04:21:02;12.70;99.90
52899;DHT22;38763;53.096;6.062;2022-10-17T04:23:29;13.00;99.90
52899;DHT22;38763;53.096;6.062;2022-10-17T04:25:55;12.70;99.90
52899;DHT22;38763;53.096;6.062;2022-10-17T04:28:22;12.80;99.90
52899;DHT22;38763;53.096;6.062;2022-10-17T04:30:57;13.10;99.90
52899;DHT22;38763;53.096;6.062;2022-10-17T04:33:23;13.00;99.90
52899;DHT22;38763;53.096;6.062;2022-10-17T04:36:00;13.00;99.90
52899;DHT22;38763;53.096;6.062;2022-10-17T04:38:27;13.20;99.90
52899;DHT22;38763;53.096;6.062;2022-10-17T04:40:53;13.10;99.90
52899;DHT22;38763;53.096;6.062;2022-10-17T04:43:18;13.20;99.90
52899;DHT22;38763;53.096;6.062;2022-10-17T04:45:44;13.10;99.90
52899;DHT22;38763;53.096;6.062;2022-10-17T04:48:10;13.20;99.90
52899;DHT22;38763;53.096;6.062;2022-10-17T04:50:35;13.30;99.90
52899;DHT22;38763;53.096;6.062;2022-10-17T04:53:01;13.20;99.90
52899;DHT22;38763;53.096;6.062;2022-10-17T04:55:27;13.40;99.90
52899;DHT22;38763;53.096;6.062;2022-10-17T04:57:52;13.20;99.90
52899;DHT22;38763;53.096;6.062;2022-10-17T05:00:18;13.50;99.90
52899;DHT22;38763;53.096;6.062;2022-10-17T05:02:43;13.30;99.90
52899;DHT22;38763;53.096;6.062;2022-10-17T05:05:09;13.50;99.90
52899;DHT22;38763;53.096;6.062;2022-10-17T05:07:38;13.50;99.90
52899;DHT22;38763;53.096;6.062;2022-10-17T05:10:04;13.50;99.90
52899;DHT22;38763;53.096;6.062;2022-10-17T05:12:29;13.50;99.90
52899;DHT22;38763;53.096;6.062;2022-10-17T05:14:55;13.60;99.90
52899;DHT22;38763;53.096;6.062;2022-10-17T05:17:20;13.60;99.90
52899;DHT22;38763;53.096;6.062;2022-10-17T05:19:46;13.50;99.90
52899;DHT22;38763;53.096;6.062;2022-10-17T05:22:12;13.40;99.90
52899;DHT22;38763;53.096;6.062;2022-10-17T05:24:37;13.40;99.90
52899;DHT22;38763;53.096;6.062;2022-10-17T05:27:03;13.40;99.90
52899;DHT22;38763;53.096;6.062;2022-10-17T05:29:28;13.60;99.90
52899;DHT22;38763;53.096;6.062;2022-10-17T05:31:54;13.40;99.90
52899;DHT22;38763;53.096;6.062;2022-10-17T05:34:19;13.60;99.90
52899;DHT22;38763;53.096;6.062;2022-10-17T05:36:45;13.50;99.90
52899;DHT22;38763;53.096;6.062;2022-10-17T05:39:12;13.40;99.90
52899;DHT22;38763;53.096;6.062;2022-10-17T05:41:39;13.50;99.90
52899;DHT22;38763;53.096;6.062;2022-10-17T05:44:04;13.50;99.90
52899;DHT22;38763;53.096;6.062;2022-10-17T05:46:30;13.40;99.90
52899;DHT22;38763;53.096;6.062;2022-10-17T05:48:56;13.50;99.90
52899;DHT22;38763;53.096;6.062;2022-10-17T05:51:21;13.40;99.90
52899;DHT22;38763;53.096;6.062;2022-10-17T05:53:47;13.40;99.90
52899;DHT22;38763;53.096;6.062;2022-10-17T05:56:13;13.60;99.90
52899;DHT22;38763;53.096;6.062;2022-10-17T05:58:42;13.40;99.90
52899;DHT22;38763;53.096;6.062;2022-10-17T06:01:10;13.50;99.90
52899;DHT22;38763;53.096;6.062;2022-10-17T06:03:36;13.40;99.90
52899;DHT22;38763;53.096;6.062;2022-10-17T06:06:07;13.60;99.90
52899;DHT22;38763;53.096;6.062;2022-10-17T06:08:33;13.60;99.90
52899;DHT22;38763;53.096;6.062;2022-10-17T06:10:59;13.60;99.90
52899;DHT22;38763;53.096;6.062;2022-10-17T06:13:25;13.80;99.90
52899;DHT22;38763;53.096;6.062;2022-10-17T06:15:50;13.70;99.90
52899;DHT22;38763;53.096;6.062;2022-10-17T06:18:16;13.70;99.90
52899;DHT22;38763;53.096;6.062;2022-10-17T06:20:41;13.60;99.90
52899;DHT22;38763;53.096;6.062;2022-10-17T06:23:07;13.90;99.90
52899;DHT22;38763;53.096;6.062;2022-10-17T06:25:33;14.10;99.90
52899;DHT22;38763;53.096;6.062;2022-10-17T06:27:58;14.10;99.90
52899;DHT22;38763;53.096;6.062;2022-10-17T06:30:24;14.20;99.90
52899;DHT22;38763;53.096;6.062;2022-10-17T06:32:53;14.10;99.90
52899;DHT22;38763;53.096;6.062;2022-10-17T06:35:19;14.30;99.90
52899;DHT22;38763;53.096;6.062;2022-10-17T06:37:45;14.40;99.90
52899;DHT22;38763;53.096;6.062;2022-10-17T06:40:11;14.20;99.90
52899;DHT22;38763;53.096;6.062;2022-10-17T06:42:37;14.50;99.90
52899;DHT22;38763;53.096;6.062;2022-10-17T06:45:04;14.50;99.90
52899;DHT22;38763;53.096;6.062;2022-10-17T06:47:30;14.50;99.90
52899;DHT22;38763;53.096;6.062;2022-10-17T06:49:55;14.30;99.90
52899;DHT22;38763;53.096;6.062;2022-10-17T06:52:21;14.50;99.90
52899;DHT22;38763;53.096;6.062;2022-10-17T06:54:47;14.40;99.90
52899;DHT22;38763;53.096;6.062;2022-10-17T06:57:12;14.40;99.90
52899;DHT22;38763;53.096;6.062;2022-10-17T06:59:38;14.50;99.90
52899;DHT22;38763;53.096;6.062;2022-10-17T07:02:04;14.40;99.90
52899;DHT22;38763;53.096;6.062;2022-10-17T07:04:30;14.60;99.90
52899;DHT22;38763;53.096;6.062;2022-10-17T07:06:56;14.70;99.90
52899;DHT22;38763;53.096;6.062;2022-10-17T07:09:22;14.90;99.90
52899;DHT22;38763;53.096;6.062;2022-10-17T07:11:48;14.70;99.90
52899;DHT22;38763;53.096;6.062;2022-10-17T07:14:14;14.80;99.90
52899;DHT22;38763;53.096;6.062;2022-10-17T07:16:40;15.00;99.90
52899;DHT22;38763;53.096;6.062;2022-10-17T07:19:05;15.10;99.90
52899;DHT22;38763;53.096;6.062;2022-10-17T07:21:31;15.10;99.90
52899;DHT22;38763;53.096;6.062;2022-10-17T07:23:57;15.20;99.90
52899;DHT22;38763;53.096;6.062;2022-10-17T07:26:22;15.20;99.90
52899;DHT22;38763;53.096;6.062;2022-10-17T07:28:51;15.30;99.90
52899;DHT22;38763;53.096;6.062;2022-10-17T07:31:18;15.40;99.90
52899;DHT22;38763;53.096;6.062;2022-10-17T07:33:44;15.30;99.90
52899;DHT22;38763;53.096;6.062;2022-10-17T07:36:11;15.30;99.90
52899;DHT22;38763;53.096;6.062;2022-10-17T07:38:36;15.30;99.90
52899;DHT22;38763;53.096;6.062;2022-10-17T07:41:04;15.40;99.90
52899;DHT22;38763;53.096;6.062;2022-10-17T07:43:31;15.50;99.90
52899;DHT22;38763;53.096;6.062;2022-10-17T07:45:57;15.40;99.90
52899;DHT22;38763;53.096;6.062;2022-10-17T07:48:24;15.50;99.90
52899;DHT22;38763;53.096;6.062;2022-10-17T07:50:50;15.50;99.90
52899;DHT22;38763;53.096;6.062;2022-10-17T07:53:16;15.50;99.90
52899;DHT22;38763;53.096;6.062;2022-10-17T07:55:42;15.80;99.90
52899;DHT22;38763;53.096;6.062;2022-10-17T07:58:11;15.80;99.90
52899;DHT22;38763;53.096;6.062;2022-10-17T08:00:36;15.80;99.90
52899;DHT22;38763;53.096;6.062;2022-10-17T08:03:03;15.90;99.90
52899;DHT22;38763;53.096;6.062;2022-10-17T08:05:30;15.80;99.90
52899;DHT22;38763;53.096;6.062;2022-10-17T08:07:56;15.90;99.90
52899;DHT22;38763;53.096;6.062;2022-10-17T08:10:22;15.80;99.90
52899;DHT22;38763;53.096;6.062;2022-10-17T08:12:55;16.00;99.90
52899;DHT22;38763;53.096;6.062;2022-10-17T08:15:21;15.90;99.90
52899;DHT22;38763;53.096;6.062;2022-10-17T08:17:47;16.00;99.90
52899;DHT22;38763;53.096;6.062;2022-10-17T08:20:13;15.80;99.90
52899;DHT22;38763;53.096;6.062;2022-10-17T08:22:38;16.00;99.90
52899;DHT22;38763;53.096;6.062;2022-10-17T08:25:04;15.80;99.90
52899;DHT22;38763;53.096;6.062;2022-10-17T08:27:32;15.80;99.90
52899;DHT22;38763;53.096;6.062;2022-10-17T08:29:58;16.00;99.90
52899;DHT22;38763;53.096;6.062;2022-10-17T08:32:26;15.90;99.90
52899;DHT22;38763;53.096;6.062;2022-10-17T08:34:52;16.00;99.90
52899;DHT22;38763;53.096;6.062;2022-10-17T08:37:18;16.00;99.90
52899;DHT22;38763;53.096;6.062;2022-10-17T08:39:44;16.00;99.90
52899;DHT22;38763;53.096;6.062;2022-10-17T08:42:23;16.00;99.90
52899;DHT22;38763;53.096;6.062;2022-10-17T08:45:19;15.90;99.90
52899;DHT22;38763;53.096;6.062;2022-10-17T08:47:48;15.90;99.90
52899;DHT22;38763;53.096;6.062;2022-10-17T08:55:34;16.10;99.90
52899;DHT22;38763;53.096;6.062;2022-10-17T08:58:00;16.10;99.90
52899;DHT22;38763;53.096;6.062;2022-10-17T09:00:28;16.20;99.90
52899;DHT22;38763;53.096;6.062;2022-10-17T09:03:13;16.00;99.90
52899;DHT22;38763;53.096;6.062;2022-10-17T09:06:31;16.00;99.90
52899;DHT22;38763;53.096;6.062;2022-10-17T09:14:20;16.10;99.90
52899;DHT22;38763;53.096;6.062;2022-10-17T09:19:24;16.20;99.90
52899;DHT22;38763;53.096;6.062;2022-10-17T09:22:00;16.10;99.90
52899;DHT22;38763;53.096;6.062;2022-10-17T09:27:02;16.20;99.90
52899;DHT22;38763;53.096;6.062;2022-10-17T09:29:28;16.20;99.90
52899;DHT22;38763;53.096;6.062;2022-10-17T09:34:27;16.10;99.90
52899;DHT22;38763;53.096;6.062;2022-10-17T09:36:54;16.10;99.90
52899;DHT22;38763;53.096;6.062;2022-10-17T09:39:23;16.00;99.90
52899;DHT22;38763;53.096;6.062;2022-10-17T09:41:53;15.90;99.90
52899;DHT22;38763;53.096;6.062;2022-10-17T09:44:35;16.00;99.90
52899;DHT22;38763;53.096;6.062;2022-10-17T09:47:23;16.10;99.90
52899;DHT22;38763;53.096;6.062;2022-10-17T09:49:51;15.90;99.90
52899;DHT22;38763;53.096;6.062;2022-10-17T09:52:30;15.90;99.90
52899;DHT22;38763;53.096;6.062;2022-10-17T09:54:59;16.10;99.90
52899;DHT22;38763;53.096;6.062;2022-10-17T09:57:26;15.90;99.90
52899;DHT22;38763;53.096;6.062;2022-10-17T10:02:25;15.80;99.90
52899;DHT22;38763;53.096;6.062;2022-10-17T10:05:02;16.00;99.90
52899;DHT22;38763;53.096;6.062;2022-10-17T10:07:30;16.00;99.90
52899;DHT22;38763;53.096;6.062;2022-10-17T10:09:58;15.80;99.90
52899;DHT22;38763;53.096;6.062;2022-10-17T10:12:34;15.80;99.90
52899;DHT22;38763;53.096;6.062;2022-10-17T10:15:01;16.00;99.90
52899;DHT22;38763;53.096;6.062;2022-10-17T10:17:38;15.80;99.90
52899;DHT22;38763;53.096;6.062;2022-10-17T10:23:13;15.90;99.90
52899;DHT22;38763;53.096;6.062;2022-10-17T10:28:36;15.80;99.90
52899;DHT22;38763;53.096;6.062;2022-10-17T10:31:05;15.70;99.90
52899;DHT22;38763;53.096;6.062;2022-10-17T10:33:34;15.90;99.90
52899;DHT22;38763;53.096;6.062;2022-10-17T10:36:03;15.90;99.90
52899;DHT22;38763;53.096;6.062;2022-10-17T10:38:31;16.00;99.90
52899;DHT22;38763;53.096;6.062;2022-10-17T10:41:08;16.00;99.90
52899;DHT22;38763;53.096;6.062;2022-10-17T10:43:35;15.90;99.90
52899;DHT22;38763;53.096;6.062;2022-10-17T10:46:25;15.90;99.90
52899;DHT22;38763;53.096;6.062;2022-10-17T10:49:00;15.90;99.90
52899;DHT22;38763;53.096;6.062;2022-10-17T10:51:41;16.00;99.90
52899;DHT22;38763;53.096;6.062;2022-10-17T10:54:28;15.90;99.90
52899;DHT22;38763;53.096;6.062;2022-10-17T10:56:59;16.00;99.90
52899;DHT22;38763;53.096;6.062;2022-10-17T10:59:33;16.10;99.90
52899;DHT22;38763;53.096;6.062;2022-10-17T11:07:33;16.10;99.90
52899;DHT22;38763;53.096;6.062;2022-10-17T11:10:29;16.10;99.90
52899;DHT22;38763;53.096;6.062;2022-10-17T11:13:19;16.10;99.90
52899;DHT22;38763;53.096;6.062;2022-10-17T11:15:56;16.10;99.90
52899;DHT22;38763;53.096;6.062;2022-10-17T11:18:41;16.00;99.90
52899;DHT22;38763;53.096;6.062;2022-10-17T11:21:21;16.00;99.90
52899;DHT22;38763;53.096;6.062;2022-10-17T11:24:11;16.10;99.90
52899;DHT22;38763;53.096;6.062;2022-10-17T11:26:48;16.20;99.90
52899;DHT22;38763;53.096;6.062;2022-10-17T11:29:14;16.10;99.90
52899;DHT22;38763;53.096;6.062;2022-10-17T11:31:46;16.00;99.90
52899;DHT22;38763;53.096;6.062;2022-10-17T11:34:26;16.00;99.90
52899;DHT22;38763;53.096;6.062;2022-10-17T11:36:58;16.20;99.90
52899;DHT22;38763;53.096;6.062;2022-10-17T11:39:40;16.20;99.90
52899;DHT22;38763;53.096;6.062;2022-10-17T11:42:18;16.20;99.90
52899;DHT22;38763;53.096;6.062;2022-10-17T11:44:45;16.10;99.90
52899;DHT22;38763;53.096;6.062;2022-10-17T11:50:02;16.30;99.90
52899;DHT22;38763;53.096;6.062;2022-10-17T11:52:42;16.30;99.90
52899;DHT22;38763;53.096;6.062;2022-10-17T11:55:18;16.30;99.90
52899;DHT22;38763;53.096;6.062;2022-10-17T12:09:53;16.60;99.90
52899;DHT22;38763;53.096;6.062;2022-10-17T12:12:29;16.50;99.90
52899;DHT22;38763;53.096;6.062;2022-10-17T12:17:45;16.50;99.90
52899;DHT22;38763;53.096;6.062;2022-10-17T12:22:59;16.40;99.90
52899;DHT22;38763;53.096;6.062;2022-10-17T12:25:29;16.20;99.90
52899;DHT22;38763;53.096;6.062;2022-10-17T12:30:32;16.30;99.90
52899;DHT22;38763;53.096;6.062;2022-10-17T12:33:05;16.20;99.90
52899;DHT22;38763;53.096;6.062;2022-10-17T12:35:38;16.10;99.90
52899;DHT22;38763;53.096;6.062;2022-10-17T12:45:49;15.90;99.90
52899;DHT22;38763;53.096;6.062;2022-10-17T12:56:08;15.90;99.90
52899;DHT22;38763;53.096;6.062;2022-10-17T12:58:34;15.90;99.90
52899;DHT22;38763;53.096;6.062;2022-10-17T13:01:01;15.80;99.90
52899;DHT22;38763;53.096;6.062;2022-10-17T13:03:33;16.00;99.90
52899;DHT22;38763;53.096;6.062;2022-10-17T13:06:06;15.90;99.90
52899;DHT22;38763;53.096;6.062;2022-10-17T13:08:38;15.90;99.90
52899;DHT22;38763;53.096;6.062;2022-10-17T13:11:08;15.80;99.90
52899;DHT22;38763;53.096;6.062;2022-10-17T13:13:52;15.80;99.90
52899;DHT22;38763;53.096;6.062;2022-10-17T13:16:34;15.70;99.90
52899;DHT22;38763;53.096;6.062;2022-10-17T13:19:12;15.70;99.90
52899;DHT22;38763;53.096;6.062;2022-10-17T13:21:38;15.70;99.90
52899;DHT22;38763;53.096;6.062;2022-10-17T13:24:30;15.80;99.90
52899;DHT22;38763;53.096;6.062;2022-10-17T13:26:57;15.80;99.90
52899;DHT22;38763;53.096;6.062;2022-10-17T13:29:24;15.70;99.90
52899;DHT22;38763;53.096;6.062;2022-10-17T13:31:52;15.80;99.90
52899;DHT22;38763;53.096;6.062;2022-10-17T13:34:21;15.80;99.90
52899;DHT22;38763;53.096;6.062;2022-10-17T13:36:53;15.70;99.90
52899;DHT22;38763;53.096;6.062;2022-10-17T13:39:24;15.80;99.90
52899;DHT22;38763;53.096;6.062;2022-10-17T13:41:52;15.80;99.90
52899;DHT22;38763;53.096;6.062;2022-10-17T13:44:21;15.90;99.90
52899;DHT22;38763;53.096;6.062;2022-10-17T13:46:48;15.80;99.90
52899;DHT22;38763;53.096;6.062;2022-10-17T13:51:56;16.00;99.90
52899;DHT22;38763;53.096;6.062;2022-10-17T13:54:35;15.80;99.90
52899;DHT22;38763;53.096;6.062;2022-10-17T13:57:02;15.80;99.90
52899;DHT22;38763;53.096;6.062;2022-10-17T13:59:36;16.00;99.90
52899;DHT22;38763;53.096;6.062;2022-10-17T14:02:03;16.00;99.90
52899;DHT22;38763;53.096;6.062;2022-10-17T14:04:30;16.00;99.90
52899;DHT22;38763;53.096;6.062;2022-10-17T14:06:55;16.00;99.90
52899;DHT22;38763;53.096;6.062;2022-10-17T14:09:24;16.00;99.90
52899;DHT22;38763;53.096;6.062;2022-10-17T14:12:08;16.00;99.90
52899;DHT22;38763;53.096;6.062;2022-10-17T14:14:35;16.00;99.90
52899;DHT22;38763;53.096;6.062;2022-10-17T14:17:02;15.90;99.90
52899;DHT22;38763;53.096;6.062;2022-10-17T14:19:37;15.90;99.90
52899;DHT22;38763;53.096;6.062;2022-10-17T14:24:45;16.00;99.90
52899;DHT22;38763;53.096;6.062;2022-10-17T14:30:47;15.90;99.90
52899;DHT22;38763;53.096;6.062;2022-10-17T14:33:28;16.10;99.90
52899;DHT22;38763;53.096;6.062;2022-10-17T14:35:56;15.90;99.90
52899;DHT22;38763;53.096;6.062;2022-10-17T14:38:23;15.90;99.90
52899;DHT22;38763;53.096;6.062;2022-10-17T14:41:12;16.00;99.90
52899;DHT22;38763;53.096;6.062;2022-10-17T14:43:39;15.90;99.90
52899;DHT22;38763;53.096;6.062;2022-10-17T14:46:05;15.90;99.90
52899;DHT22;38763;53.096;6.062;2022-10-17T14:48:32;16.00;99.90
52899;DHT22;38763;53.096;6.062;2022-10-17T14:53:36;15.90;99.90
52899;DHT22;38763;53.096;6.062;2022-10-17T14:56:17;15.90;99.90
52899;DHT22;38763;53.096;6.062;2022-10-17T14:58:44;16.00;99.90
52899;DHT22;38763;53.096;6.062;2022-10-17T15:01:10;16.10;99.90
52899;DHT22;38763;53.096;6.062;2022-10-17T15:03:36;16.00;99.90
52899;DHT22;38763;53.096;6.062;2022-10-17T15:06:26;16.00;99.90
52899;DHT22;38763;53.096;6.062;2022-10-17T15:08:52;15.90;99.90
52899;DHT22;38763;53.096;6.062;2022-10-17T15:11:17;16.10;99.90
52899;DHT22;38763;53.096;6.062;2022-10-17T15:13:43;16.00;99.90
52899;DHT22;38763;53.096;6.062;2022-10-17T15:16:16;16.00;99.90
52899;DHT22;38763;53.096;6.062;2022-10-17T15:18:42;16.00;99.90
52899;DHT22;38763;53.096;6.062;2022-10-17T15:21:12;16.00;99.90
52899;DHT22;38763;53.096;6.062;2022-10-17T15:23:38;15.90;99.90
52899;DHT22;38763;53.096;6.062;2022-10-17T15:28:38;15.80;99.90
52899;DHT22;38763;53.096;6.062;2022-10-17T15:31:04;15.80;99.90
52899;DHT22;38763;53.096;6.062;2022-10-17T15:33:30;15.90;99.90
52899;DHT22;38763;53.096;6.062;2022-10-17T15:35:55;15.70;99.90
52899;DHT22;38763;53.096;6.062;2022-10-17T15:38:21;15.60;99.90
52899;DHT22;38763;53.096;6.062;2022-10-17T15:40:46;15.70;99.90
52899;DHT22;38763;53.096;6.062;2022-10-17T15:43:15;15.60;99.90
52899;DHT22;38763;53.096;6.062;2022-10-17T15:45:40;15.60;99.90
52899;DHT22;38763;53.096;6.062;2022-10-17T15:48:06;15.60;99.90
52899;DHT22;38763;53.096;6.062;2022-10-17T15:50:34;15.50;99.90
52899;DHT22;38763;53.096;6.062;2022-10-17T15:53:00;15.50;99.90
52899;DHT22;38763;53.096;6.062;2022-10-17T15:55:26;15.50;99.90
52899;DHT22;38763;53.096;6.062;2022-10-17T15:57:52;15.50;99.90
52899;DHT22;38763;53.096;6.062;2022-10-17T16:00:21;15.40;99.90
52899;DHT22;38763;53.096;6.062;2022-10-17T16:02:47;15.40;99.90
52899;DHT22;38763;53.096;6.062;2022-10-17T16:05:19;15.40;99.90
52899;DHT22;38763;53.096;6.062;2022-10-17T16:07:48;15.30;99.90
52899;DHT22;38763;53.096;6.062;2022-10-17T16:10:14;15.30;99.90
52899;DHT22;38763;53.096;6.062;2022-10-17T16:12:41;15.30;99.90
52899;DHT22;38763;53.096;6.062;2022-10-17T16:15:16;15.40;99.90
52899;DHT22;38763;53.096;6.062;2022-10-17T16:17:42;15.30;99.90
52899;DHT22;38763;53.096;6.062;2022-10-17T16:20:09;15.20;99.90
52899;DHT22;38763;53.096;6.062;2022-10-17T16:22:35;15.20;99.90
52899;DHT22;38763;53.096;6.062;2022-10-17T16:25:06;15.30;99.90
52899;DHT22;38763;53.096;6.062;2022-10-17T16:27:35;15.20;99.90
52899;DHT22;38763;53.096;6.062;2022-10-17T16:30:02;15.20;99.90
52899;DHT22;38763;53.096;6.062;2022-10-17T16:32:28;15.20;99.90
52899;DHT22;38763;53.096;6.062;2022-10-17T16:34:54;15.20;99.90
52899;DHT22;38763;53.096;6.062;2022-10-17T16:37:20;15.20;99.90
52899;DHT22;38763;53.096;6.062;2022-10-17T16:39:45;15.10;99.90
52899;DHT22;38763;53.096;6.062;2022-10-17T16:42:17;15.10;99.90
52899;DHT22;38763;53.096;6.062;2022-10-17T16:44:43;15.10;99.90
52899;DHT22;38763;53.096;6.062;2022-10-17T16:47:08;15.00;99.90
52899;DHT22;38763;53.096;6.062;2022-10-17T16:49:34;15.00;99.90
52899;DHT22;38763;53.096;6.062;2022-10-17T16:52:00;14.90;99.90
52899;DHT22;38763;53.096;6.062;2022-10-17T16:54:25;14.90;99.90
52899;DHT22;38763;53.096;6.062;2022-10-17T16:56:51;15.00;99.90
52899;DHT22;38763;53.096;6.062;2022-10-17T16:59:16;15.10;99.90
52899;DHT22;38763;53.096;6.062;2022-10-17T17:01:42;15.00;99.90
52899;DHT22;38763;53.096;6.062;2022-10-17T17:04:08;15.00;99.90
52899;DHT22;38763;53.096;6.062;2022-10-17T17:06:34;15.00;99.90
52899;DHT22;38763;53.096;6.062;2022-10-17T17:09:00;14.90;99.90
52899;DHT22;38763;53.096;6.062;2022-10-17T17:11:27;14.90;99.90
52899;DHT22;38763;53.096;6.062;2022-10-17T17:13:56;15.10;99.90
52899;DHT22;38763;53.096;6.062;2022-10-17T17:16:23;14.90;99.90
52899;DHT22;38763;53.096;6.062;2022-10-17T17:19:07;15.00;99.90
52899;DHT22;38763;53.096;6.062;2022-10-17T17:21:33;14.90;99.90
52899;DHT22;38763;53.096;6.062;2022-10-17T17:24:00;14.90;99.90
52899;DHT22;38763;53.096;6.062;2022-10-17T17:26:29;15.00;99.90
52899;DHT22;38763;53.096;6.062;2022-10-17T17:28:58;15.00;99.90
52899;DHT22;38763;53.096;6.062;2022-10-17T17:31:28;14.90;99.90
52899;DHT22;38763;53.096;6.062;2022-10-17T17:33:55;15.00;99.90
52899;DHT22;38763;53.096;6.062;2022-10-17T17:36:23;14.90;99.90
52899;DHT22;38763;53.096;6.062;2022-10-17T17:38:49;14.90;99.90